sensor_id;sensor_type;location;lat;lon;timestamp;P1;durP1;ratioP1;P2;durP2;ratioP2
11970;SDS011;6045;42.682;23.294;2023-04-06T00:00:09;2.93;;;1.70;;
11970;SDS011;6045;42.682;23.294;2023-04-06T00:02:37;1.40;;;1.30;;
11970;SDS011;6045;42.682;23.294;2023-04-06T00:05:04;2.63;;;1.77;;
11970;SDS011;6045;42.682;23.294;2023-04-06T00:07:31;1.93;;;1.83;;
11970;SDS011;6045;42.682;23.294;2023-04-06T00:10:00;1.60;;;1.50;;
11970;SDS011;6045;42.682;23.294;2023-04-06T00:12:27;4.77;;;2.07;;
11970;SDS011;6045;42.682;23.294;2023-04-06T00:14:54;3.13;;;2.93;;
11970;SDS011;6045;42.682;23.294;2023-04-06T00:17:21;3.40;;;1.57;;
11970;SDS011;6045;42.682;23.294;2023-04-06T00:19:48;2.17;;;1.20;;
11970;SDS011;6045;42.682;23.294;2023-04-06T00:22:15;1.90;;;1.80;;
11970;SDS011;6045;42.682;23.294;2023-04-06T00:24:41;1.93;;;1.83;;
11970;SDS011;6045;42.682;23.294;2023-04-06T00:27:10;2.50;;;2.10;;
11970;SDS011;6045;42.682;23.294;2023-04-06T00:29:36;1.90;;;1.67;;
11970;SDS011;6045;42.682;23.294;2023-04-06T00:32:03;2.83;;;1.33;;
11970;SDS011;6045;42.682;23.294;2023-04-06T00:34:30;1.87;;;1.70;;
11970;SDS011;6045;42.682;23.294;2023-04-06T00:36:57;0.80;;;0.80;;
11970;SDS011;6045;42.682;23.294;2023-04-06T00:39:24;2.13;;;1.20;;
11970;SDS011;6045;42.682;23.294;2023-04-06T00:41:51;1.60;;;1.50;;
11970;SDS011;6045;42.682;23.294;2023-04-06T00:44:20;1.97;;;1.87;;
11970;SDS011;6045;42.682;23.294;2023-04-06T00:46:48;2.67;;;1.20;;
11970;SDS011;6045;42.682;23.294;2023-04-06T00:49:15;0.93;;;0.77;;
11970;SDS011;6045;42.682;23.294;2023-04-06T00:51:42;1.83;;;1.73;;
11970;SDS011;6045;42.682;23.294;2023-04-06T00:54:09;0.73;;;0.73;;
11970;SDS011;6045;42.682;23.294;2023-04-06T00:56:35;2.50;;;1.73;;
11970;SDS011;6045;42.682;23.294;2023-04-06T00:59:02;2.37;;;2.07;;
11970;SDS011;6045;42.682;23.294;2023-04-06T01:01:31;0.97;;;0.93;;
11970;SDS011;6045;42.682;23.294;2023-04-06T01:03:58;3.13;;;2.83;;
11970;SDS011;6045;42.682;23.294;2023-04-06T01:06:25;3.00;;;0.67;;
11970;SDS011;6045;42.682;23.294;2023-04-06T01:08:52;1.93;;;0.97;;
11970;SDS011;6045;42.682;23.294;2023-04-06T01:11:19;3.10;;;2.80;;
11970;SDS011;6045;42.682;23.294;2023-04-06T01:13:46;1.87;;;0.93;;
11970;SDS011;6045;42.682;23.294;2023-04-06T01:16:13;2.50;;;2.13;;
11970;SDS011;6045;42.682;23.294;2023-04-06T01:18:41;1.77;;;1.67;;
11970;SDS011;6045;42.682;23.294;2023-04-06T01:21:08;2.10;;;2.00;;
11970;SDS011;6045;42.682;23.294;2023-04-06T01:23:42;2.60;;;2.43;;
11970;SDS011;6045;42.682;23.294;2023-04-06T01:26:10;3.67;;;2.60;;
11970;SDS011;6045;42.682;23.294;2023-04-06T01:28:37;1.80;;;1.33;;
11970;SDS011;6045;42.682;23.294;2023-04-06T01:31:04;2.33;;;2.07;;
11970;SDS011;6045;42.682;23.294;2023-04-06T01:33:31;3.00;;;1.43;;
11970;SDS011;6045;42.682;23.294;2023-04-06T01:35:58;1.70;;;1.60;;
11970;SDS011;6045;42.682;23.294;2023-04-06T01:38:25;1.73;;;1.53;;
11970;SDS011;6045;42.682;23.294;2023-04-06T01:40:53;1.90;;;1.20;;
11970;SDS011;6045;42.682;23.294;2023-04-06T01:43:20;1.37;;;1.27;;
11970;SDS011;6045;42.682;23.294;2023-04-06T01:45:48;1.70;;;1.60;;
11970;SDS011;6045;42.682;23.294;2023-04-06T01:48:14;1.40;;;1.30;;
11970;SDS011;6045;42.682;23.294;2023-04-06T01:50:41;1.97;;;1.60;;
11970;SDS011;6045;42.682;23.294;2023-04-06T01:53:08;1.43;;;1.33;;
11970;SDS011;6045;42.682;23.294;2023-04-06T01:55:35;3.63;;;1.60;;
11970;SDS011;6045;42.682;23.294;2023-04-06T01:58:03;2.30;;;1.97;;
11970;SDS011;6045;42.682;23.294;2023-04-06T02:00:30;1.90;;;1.50;;
11970;SDS011;6045;42.682;23.294;2023-04-06T02:02:57;3.57;;;2.10;;
11970;SDS011;6045;42.682;23.294;2023-04-06T02:05:24;2.27;;;2.13;;
11970;SDS011;6045;42.682;23.294;2023-04-06T02:07:51;1.47;;;1.17;;
11970;SDS011;6045;42.682;23.294;2023-04-06T02:10:18;1.80;;;1.43;;
11970;SDS011;6045;42.682;23.294;2023-04-06T02:12:45;2.00;;;1.33;;
11970;SDS011;6045;42.682;23.294;2023-04-06T02:15:13;4.10;;;2.13;;
11970;SDS011;6045;42.682;23.294;2023-04-06T02:17:40;1.70;;;1.50;;
11970;SDS011;6045;42.682;23.294;2023-04-06T02:20:08;3.13;;;1.93;;
11970;SDS011;6045;42.682;23.294;2023-04-06T02:22:35;2.17;;;1.77;;
11970;SDS011;6045;42.682;23.294;2023-04-06T02:25:02;1.63;;;1.53;;
11970;SDS011;6045;42.682;23.294;2023-04-06T02:27:29;1.50;;;1.37;;
11970;SDS011;6045;42.682;23.294;2023-04-06T02:29:56;5.63;;;2.57;;
11970;SDS011;6045;42.682;23.294;2023-04-06T02:32:24;2.33;;;2.10;;
11970;SDS011;6045;42.682;23.294;2023-04-06T02:34:51;1.17;;;1.17;;
11970;SDS011;6045;42.682;23.294;2023-04-06T02:37:18;1.90;;;1.80;;
11970;SDS011;6045;42.682;23.294;2023-04-06T02:39:45;1.20;;;1.07;;
11970;SDS011;6045;42.682;23.294;2023-04-06T02:42:12;1.60;;;1.50;;
11970;SDS011;6045;42.682;23.294;2023-04-06T02:44:40;1.63;;;1.53;;
11970;SDS011;6045;42.682;23.294;2023-04-06T02:47:07;1.17;;;1.17;;
11970;SDS011;6045;42.682;23.294;2023-04-06T02:49:35;2.17;;;2.03;;
11970;SDS011;6045;42.682;23.294;2023-04-06T02:52:02;3.93;;;2.07;;
11970;SDS011;6045;42.682;23.294;2023-04-06T02:54:30;2.53;;;1.40;;
11970;SDS011;6045;42.682;23.294;2023-04-06T02:56:56;0.53;;;0.40;;
11970;SDS011;6045;42.682;23.294;2023-04-06T02:59:23;1.27;;;1.17;;
11970;SDS011;6045;42.682;23.294;2023-04-06T03:01:50;2.90;;;1.70;;
11970;SDS011;6045;42.682;23.294;2023-04-06T03:04:17;3.43;;;1.57;;
11970;SDS011;6045;42.682;23.294;2023-04-06T03:06:46;2.23;;;1.97;;
11970;SDS011;6045;42.682;23.294;2023-04-06T03:09:13;2.63;;;1.27;;
11970;SDS011;6045;42.682;23.294;2023-04-06T03:11:40;3.20;;;1.27;;
11970;SDS011;6045;42.682;23.294;2023-04-06T03:14:07;2.10;;;1.57;;
11970;SDS011;6045;42.682;23.294;2023-04-06T03:16:34;1.77;;;1.10;;
11970;SDS011;6045;42.682;23.294;2023-04-06T03:19:00;0.83;;;0.83;;
11970;SDS011;6045;42.682;23.294;2023-04-06T03:21:27;2.83;;;2.33;;
11970;SDS011;6045;42.682;23.294;2023-04-06T03:23:56;3.33;;;2.20;;
11970;SDS011;6045;42.682;23.294;2023-04-06T03:26:23;1.23;;;1.13;;
11970;SDS011;6045;42.682;23.294;2023-04-06T03:28:50;3.47;;;2.57;;
11970;SDS011;6045;42.682;23.294;2023-04-06T03:31:16;2.13;;;1.73;;
11970;SDS011;6045;42.682;23.294;2023-04-06T03:33:43;3.70;;;2.30;;
11970;SDS011;6045;42.682;23.294;2023-04-06T03:36:10;1.60;;;1.50;;
11970;SDS011;6045;42.682;23.294;2023-04-06T03:38:37;1.67;;;1.57;;
11970;SDS011;6045;42.682;23.294;2023-04-06T03:41:05;5.20;;;1.73;;
11970;SDS011;6045;42.682;23.294;2023-04-06T03:43:32;1.00;;;1.00;;
11970;SDS011;6045;42.682;23.294;2023-04-06T03:45:59;1.43;;;1.27;;
11970;SDS011;6045;42.682;23.294;2023-04-06T03:48:26;2.10;;;1.93;;
11970;SDS011;6045;42.682;23.294;2023-04-06T03:50:53;7.47;;;3.13;;
11970;SDS011;6045;42.682;23.294;2023-04-06T03:53:19;1.07;;;0.97;;
11970;SDS011;6045;42.682;23.294;2023-04-06T03:55:46;0.83;;;0.83;;
11970;SDS011;6045;42.682;23.294;2023-04-06T03:58:15;1.80;;;1.47;;
11970;SDS011;6045;42.682;23.294;2023-04-06T04:00:41;1.73;;;1.23;;
11970;SDS011;6045;42.682;23.294;2023-04-06T04:03:08;2.00;;;1.83;;
11970;SDS011;6045;42.682;23.294;2023-04-06T04:05:35;1.33;;;1.17;;
11970;SDS011;6045;42.682;23.294;2023-04-06T04:08:02;2.60;;;1.73;;
11970;SDS011;6045;42.682;23.294;2023-04-06T04:10:29;1.83;;;1.67;;
11970;SDS011;6045;42.682;23.294;2023-04-06T04:12:56;4.77;;;1.53;;
11970;SDS011;6045;42.682;23.294;2023-04-06T04:15:24;1.97;;;1.47;;
11970;SDS011;6045;42.682;23.294;2023-04-06T04:17:51;3.03;;;2.47;;
11970;SDS011;6045;42.682;23.294;2023-04-06T04:20:18;1.57;;;1.50;;
11970;SDS011;6045;42.682;23.294;2023-04-06T04:22:45;1.90;;;1.77;;
11970;SDS011;6045;42.682;23.294;2023-04-06T04:25:11;2.17;;;1.87;;
11970;SDS011;6045;42.682;23.294;2023-04-06T04:27:40;2.33;;;2.13;;
11970;SDS011;6045;42.682;23.294;2023-04-06T04:30:07;2.80;;;1.70;;
11970;SDS011;6045;42.682;23.294;2023-04-06T04:32:36;2.43;;;1.80;;
11970;SDS011;6045;42.682;23.294;2023-04-06T04:35:03;2.83;;;2.17;;
11970;SDS011;6045;42.682;23.294;2023-04-06T04:37:30;3.60;;;2.17;;
11970;SDS011;6045;42.682;23.294;2023-04-06T04:39:56;1.40;;;1.30;;
11970;SDS011;6045;42.682;23.294;2023-04-06T04:42:23;3.57;;;3.27;;
11970;SDS011;6045;42.682;23.294;2023-04-06T04:44:50;3.93;;;2.17;;
11970;SDS011;6045;42.682;23.294;2023-04-06T04:47:17;4.37;;;2.50;;
11970;SDS011;6045;42.682;23.294;2023-04-06T04:49:45;1.73;;;1.60;;
11970;SDS011;6045;42.682;23.294;2023-04-06T04:52:12;2.03;;;1.73;;
11970;SDS011;6045;42.682;23.294;2023-04-06T04:54:39;1.97;;;1.67;;
11970;SDS011;6045;42.682;23.294;2023-04-06T04:57:06;3.30;;;1.80;;
11970;SDS011;6045;42.682;23.294;2023-04-06T04:59:33;2.73;;;2.53;;
11970;SDS011;6045;42.682;23.294;2023-04-06T05:02:00;4.60;;;2.80;;
11970;SDS011;6045;42.682;23.294;2023-04-06T05:04:27;2.77;;;0.77;;
11970;SDS011;6045;42.682;23.294;2023-04-06T05:07:03;7.37;;;2.73;;
11970;SDS011;6045;42.682;23.294;2023-04-06T05:09:30;2.80;;;2.20;;
11970;SDS011;6045;42.682;23.294;2023-04-06T05:11:57;3.30;;;2.33;;
11970;SDS011;6045;42.682;23.294;2023-04-06T05:14:28;4.40;;;2.57;;
11970;SDS011;6045;42.682;23.294;2023-04-06T05:17:00;2.20;;;1.70;;
11970;SDS011;6045;42.682;23.294;2023-04-06T05:19:27;3.00;;;2.60;;
11970;SDS011;6045;42.682;23.294;2023-04-06T05:21:54;3.80;;;2.60;;
11970;SDS011;6045;42.682;23.294;2023-04-06T05:24:22;2.50;;;1.77;;
11970;SDS011;6045;42.682;23.294;2023-04-06T05:26:49;3.10;;;2.90;;
11970;SDS011;6045;42.682;23.294;2023-04-06T05:29:16;2.13;;;1.93;;
11970;SDS011;6045;42.682;23.294;2023-04-06T05:31:43;5.80;;;2.87;;
11970;SDS011;6045;42.682;23.294;2023-04-06T05:34:10;3.50;;;2.90;;
11970;SDS011;6045;42.682;23.294;2023-04-06T05:36:37;2.43;;;2.17;;
11970;SDS011;6045;42.682;23.294;2023-04-06T05:39:05;3.70;;;1.33;;
11970;SDS011;6045;42.682;23.294;2023-04-06T05:41:33;3.20;;;1.67;;
11970;SDS011;6045;42.682;23.294;2023-04-06T05:44:00;6.13;;;2.53;;
11970;SDS011;6045;42.682;23.294;2023-04-06T05:46:27;4.40;;;2.87;;
11970;SDS011;6045;42.682;23.294;2023-04-06T05:48:54;5.20;;;2.43;;
11970;SDS011;6045;42.682;23.294;2023-04-06T05:51:21;6.77;;;2.13;;
11970;SDS011;6045;42.682;23.294;2023-04-06T05:53:48;4.83;;;2.67;;
11970;SDS011;6045;42.682;23.294;2023-04-06T05:56:15;3.27;;;2.30;;
11970;SDS011;6045;42.682;23.294;2023-04-06T05:58:43;3.10;;;2.90;;
11970;SDS011;6045;42.682;23.294;2023-04-06T06:01:15;5.17;;;3.73;;
11970;SDS011;6045;42.682;23.294;2023-04-06T06:03:46;5.10;;;3.67;;
11970;SDS011;6045;42.682;23.294;2023-04-06T06:06:13;2.67;;;2.10;;
11970;SDS011;6045;42.682;23.294;2023-04-06T06:08:41;6.70;;;3.27;;
11970;SDS011;6045;42.682;23.294;2023-04-06T06:11:08;2.23;;;2.03;;
11970;SDS011;6045;42.682;23.294;2023-04-06T06:13:35;3.87;;;2.77;;
11970;SDS011;6045;42.682;23.294;2023-04-06T06:16:04;6.07;;;2.87;;
11970;SDS011;6045;42.682;23.294;2023-04-06T06:18:31;10.67;;;4.57;;
11970;SDS011;6045;42.682;23.294;2023-04-06T06:20:58;9.63;;;3.63;;
11970;SDS011;6045;42.682;23.294;2023-04-06T06:23:25;4.00;;;2.80;;
11970;SDS011;6045;42.682;23.294;2023-04-06T06:25:52;6.80;;;3.80;;
11970;SDS011;6045;42.682;23.294;2023-04-06T06:28:19;6.27;;;3.70;;
11970;SDS011;6045;42.682;23.294;2023-04-06T06:30:45;9.93;;;4.60;;
11970;SDS011;6045;42.682;23.294;2023-04-06T06:33:14;6.27;;;3.90;;
11970;SDS011;6045;42.682;23.294;2023-04-06T06:35:41;6.77;;;3.33;;
11970;SDS011;6045;42.682;23.294;2023-04-06T06:38:08;5.27;;;4.60;;
11970;SDS011;6045;42.682;23.294;2023-04-06T06:40:34;5.40;;;3.27;;
11970;SDS011;6045;42.682;23.294;2023-04-06T06:43:02;7.17;;;3.60;;
11970;SDS011;6045;42.682;23.294;2023-04-06T06:45:29;7.17;;;3.97;;
11970;SDS011;6045;42.682;23.294;2023-04-06T06:47:56;4.27;;;2.33;;
11970;SDS011;6045;42.682;23.294;2023-04-06T06:50:24;8.57;;;4.50;;
11970;SDS011;6045;42.682;23.294;2023-04-06T06:52:51;5.83;;;3.90;;
11970;SDS011;6045;42.682;23.294;2023-04-06T06:55:18;4.03;;;2.87;;
11970;SDS011;6045;42.682;23.294;2023-04-06T06:57:45;4.00;;;3.33;;
11970;SDS011;6045;42.682;23.294;2023-04-06T07:00:12;4.87;;;3.93;;
11970;SDS011;6045;42.682;23.294;2023-04-06T07:02:40;5.40;;;2.70;;
11970;SDS011;6045;42.682;23.294;2023-04-06T07:05:07;4.83;;;3.20;;
11970;SDS011;6045;42.682;23.294;2023-04-06T07:07:35;4.97;;;3.43;;
11970;SDS011;6045;42.682;23.294;2023-04-06T07:10:02;7.10;;;5.20;;
11970;SDS011;6045;42.682;23.294;2023-04-06T07:12:30;3.63;;;3.03;;
11970;SDS011;6045;42.682;23.294;2023-04-06T07:14:56;2.60;;;2.20;;
11970;SDS011;6045;42.682;23.294;2023-04-06T07:17:23;3.37;;;2.70;;
11970;SDS011;6045;42.682;23.294;2023-04-06T07:19:50;2.33;;;2.17;;
11970;SDS011;6045;42.682;23.294;2023-04-06T07:22:17;6.03;;;3.13;;
11970;SDS011;6045;42.682;23.294;2023-04-06T07:24:45;5.77;;;3.27;;
11970;SDS011;6045;42.682;23.294;2023-04-06T07:27:12;2.33;;;2.00;;
11970;SDS011;6045;42.682;23.294;2023-04-06T07:29:39;3.17;;;2.97;;
11970;SDS011;6045;42.682;23.294;2023-04-06T07:32:06;4.00;;;3.63;;
11970;SDS011;6045;42.682;23.294;2023-04-06T07:34:32;6.13;;;2.70;;
11970;SDS011;6045;42.682;23.294;2023-04-06T07:36:59;4.37;;;3.57;;
11970;SDS011;6045;42.682;23.294;2023-04-06T07:39:28;3.77;;;2.77;;
11970;SDS011;6045;42.682;23.294;2023-04-06T07:41:56;5.43;;;3.37;;
11970;SDS011;6045;42.682;23.294;2023-04-06T07:44:23;3.67;;;3.17;;
11970;SDS011;6045;42.682;23.294;2023-04-06T07:46:50;5.83;;;3.83;;
11970;SDS011;6045;42.682;23.294;2023-04-06T07:49:17;5.97;;;4.10;;
11970;SDS011;6045;42.682;23.294;2023-04-06T07:51:45;8.47;;;4.07;;
11970;SDS011;6045;42.682;23.294;2023-04-06T07:54:12;8.17;;;4.40;;
11970;SDS011;6045;42.682;23.294;2023-04-06T07:56:42;7.23;;;3.50;;
11970;SDS011;6045;42.682;23.294;2023-04-06T07:59:13;5.07;;;3.87;;
11970;SDS011;6045;42.682;23.294;2023-04-06T08:01:43;5.27;;;3.87;;
11970;SDS011;6045;42.682;23.294;2023-04-06T08:04:10;6.03;;;3.53;;
11970;SDS011;6045;42.682;23.294;2023-04-06T08:06:37;4.87;;;3.77;;
11970;SDS011;6045;42.682;23.294;2023-04-06T08:09:06;5.20;;;3.50;;
11970;SDS011;6045;42.682;23.294;2023-04-06T08:11:32;5.60;;;3.90;;
11970;SDS011;6045;42.682;23.294;2023-04-06T08:13:59;5.20;;;4.07;;
11970;SDS011;6045;42.682;23.294;2023-04-06T08:16:28;4.30;;;3.10;;
11970;SDS011;6045;42.682;23.294;2023-04-06T08:18:54;5.03;;;2.63;;
11970;SDS011;6045;42.682;23.294;2023-04-06T08:21:21;6.40;;;3.83;;
11970;SDS011;6045;42.682;23.294;2023-04-06T08:23:48;4.57;;;4.13;;
11970;SDS011;6045;42.682;23.294;2023-04-06T08:26:15;4.23;;;3.77;;
11970;SDS011;6045;42.682;23.294;2023-04-06T08:28:42;3.93;;;3.53;;
11970;SDS011;6045;42.682;23.294;2023-04-06T08:31:09;5.30;;;3.70;;
11970;SDS011;6045;42.682;23.294;2023-04-06T08:33:37;3.70;;;3.03;;
11970;SDS011;6045;42.682;23.294;2023-04-06T08:36:08;7.00;;;3.20;;
11970;SDS011;6045;42.682;23.294;2023-04-06T08:38:35;2.60;;;2.03;;
11970;SDS011;6045;42.682;23.294;2023-04-06T08:41:06;5.07;;;3.43;;
11970;SDS011;6045;42.682;23.294;2023-04-06T08:43:35;4.17;;;2.60;;
11970;SDS011;6045;42.682;23.294;2023-04-06T08:46:09;3.17;;;2.50;;
11970;SDS011;6045;42.682;23.294;2023-04-06T08:48:38;3.87;;;2.80;;
11970;SDS011;6045;42.682;23.294;2023-04-06T08:51:06;5.43;;;3.57;;
11970;SDS011;6045;42.682;23.294;2023-04-06T08:53:33;4.83;;;3.20;;
11970;SDS011;6045;42.682;23.294;2023-04-06T08:56:01;6.63;;;3.27;;
11970;SDS011;6045;42.682;23.294;2023-04-06T08:58:34;4.17;;;3.13;;
11970;SDS011;6045;42.682;23.294;2023-04-06T09:01:05;4.77;;;3.07;;
11970;SDS011;6045;42.682;23.294;2023-04-06T09:03:35;5.37;;;3.23;;
11970;SDS011;6045;42.682;23.294;2023-04-06T09:06:05;3.80;;;3.43;;
11970;SDS011;6045;42.682;23.294;2023-04-06T09:08:33;4.00;;;3.27;;
11970;SDS011;6045;42.682;23.294;2023-04-06T09:11:01;5.20;;;2.70;;
11970;SDS011;6045;42.682;23.294;2023-04-06T09:13:28;6.00;;;3.57;;
11970;SDS011;6045;42.682;23.294;2023-04-06T09:15:59;5.63;;;3.13;;
11970;SDS011;6045;42.682;23.294;2023-04-06T09:18:29;4.77;;;3.20;;
11970;SDS011;6045;42.682;23.294;2023-04-06T09:21:00;7.60;;;3.37;;
11970;SDS011;6045;42.682;23.294;2023-04-06T09:23:28;3.67;;;3.17;;
11970;SDS011;6045;42.682;23.294;2023-04-06T09:26:07;6.77;;;3.47;;
11970;SDS011;6045;42.682;23.294;2023-04-06T09:28:45;4.57;;;2.83;;
11970;SDS011;6045;42.682;23.294;2023-04-06T09:31:14;5.27;;;3.73;;
11970;SDS011;6045;42.682;23.294;2023-04-06T09:33:43;2.33;;;1.93;;
11970;SDS011;6045;42.682;23.294;2023-04-06T09:36:12;1.67;;;1.57;;
11970;SDS011;6045;42.682;23.294;2023-04-06T09:38:51;2.97;;;2.30;;
11970;SDS011;6045;42.682;23.294;2023-04-06T09:41:23;3.20;;;2.57;;
11970;SDS011;6045;42.682;23.294;2023-04-06T09:43:50;4.60;;;2.77;;
11970;SDS011;6045;42.682;23.294;2023-04-06T09:46:19;3.10;;;2.43;;
11970;SDS011;6045;42.682;23.294;2023-04-06T09:48:49;3.17;;;2.87;;
11970;SDS011;6045;42.682;23.294;2023-04-06T09:51:17;5.13;;;3.43;;
11970;SDS011;6045;42.682;23.294;2023-04-06T09:53:45;3.17;;;2.90;;
11970;SDS011;6045;42.682;23.294;2023-04-06T09:56:19;2.87;;;2.27;;
11970;SDS011;6045;42.682;23.294;2023-04-06T09:58:50;3.30;;;2.17;;
11970;SDS011;6045;42.682;23.294;2023-04-06T10:01:22;3.87;;;3.10;;
11970;SDS011;6045;42.682;23.294;2023-04-06T10:03:55;4.17;;;2.90;;
11970;SDS011;6045;42.682;23.294;2023-04-06T10:06:28;3.87;;;2.40;;
11970;SDS011;6045;42.682;23.294;2023-04-06T10:09:00;3.27;;;2.80;;
11970;SDS011;6045;42.682;23.294;2023-04-06T10:11:28;3.73;;;2.63;;
11970;SDS011;6045;42.682;23.294;2023-04-06T10:13:55;4.07;;;3.10;;
11970;SDS011;6045;42.682;23.294;2023-04-06T10:16:23;3.30;;;2.63;;
11970;SDS011;6045;42.682;23.294;2023-04-06T10:18:52;3.63;;;2.43;;
11970;SDS011;6045;42.682;23.294;2023-04-06T10:21:23;3.87;;;2.77;;
11970;SDS011;6045;42.682;23.294;2023-04-06T10:23:55;4.10;;;3.30;;
11970;SDS011;6045;42.682;23.294;2023-04-06T10:26:25;3.13;;;2.53;;
11970;SDS011;6045;42.682;23.294;2023-04-06T10:28:52;3.10;;;2.07;;
11970;SDS011;6045;42.682;23.294;2023-04-06T10:31:26;4.60;;;2.67;;
11970;SDS011;6045;42.682;23.294;2023-04-06T10:33:53;5.67;;;2.97;;
11970;SDS011;6045;42.682;23.294;2023-04-06T10:36:21;2.00;;;1.73;;
11970;SDS011;6045;42.682;23.294;2023-04-06T10:38:55;3.40;;;2.80;;
11970;SDS011;6045;42.682;23.294;2023-04-06T10:41:23;3.03;;;2.70;;
11970;SDS011;6045;42.682;23.294;2023-04-06T10:43:58;7.47;;;3.30;;
11970;SDS011;6045;42.682;23.294;2023-04-06T10:46:26;4.00;;;2.33;;
11970;SDS011;6045;42.682;23.294;2023-04-06T10:48:56;3.63;;;3.17;;
11970;SDS011;6045;42.682;23.294;2023-04-06T10:51:25;3.97;;;2.90;;
11970;SDS011;6045;42.682;23.294;2023-04-06T10:53:55;4.03;;;3.13;;
11970;SDS011;6045;42.682;23.294;2023-04-06T10:56:24;3.20;;;2.60;;
11970;SDS011;6045;42.682;23.294;2023-04-06T10:58:54;5.17;;;3.90;;
11970;SDS011;6045;42.682;23.294;2023-04-06T11:01:22;3.00;;;2.60;;
11970;SDS011;6045;42.682;23.294;2023-04-06T11:03:52;3.63;;;2.17;;
11970;SDS011;6045;42.682;23.294;2023-04-06T11:06:21;4.33;;;3.07;;
11970;SDS011;6045;42.682;23.294;2023-04-06T11:08:49;3.17;;;2.77;;
11970;SDS011;6045;42.682;23.294;2023-04-06T11:11:18;4.03;;;3.50;;
11970;SDS011;6045;42.682;23.294;2023-04-06T11:13:46;6.20;;;3.17;;
11970;SDS011;6045;42.682;23.294;2023-04-06T11:16:15;3.43;;;2.33;;
11970;SDS011;6045;42.682;23.294;2023-04-06T11:18:49;4.23;;;3.23;;
11970;SDS011;6045;42.682;23.294;2023-04-06T11:21:17;3.97;;;2.87;;
11970;SDS011;6045;42.682;23.294;2023-04-06T11:23:44;6.13;;;3.40;;
11970;SDS011;6045;42.682;23.294;2023-04-06T11:26:11;4.57;;;2.90;;
11970;SDS011;6045;42.682;23.294;2023-04-06T11:28:40;4.87;;;3.30;;
11970;SDS011;6045;42.682;23.294;2023-04-06T11:31:08;5.40;;;3.50;;
11970;SDS011;6045;42.682;23.294;2023-04-06T11:33:35;3.43;;;3.10;;
11970;SDS011;6045;42.682;23.294;2023-04-06T11:36:03;3.73;;;2.90;;
11970;SDS011;6045;42.682;23.294;2023-04-06T11:38:31;3.67;;;3.37;;
11970;SDS011;6045;42.682;23.294;2023-04-06T11:40:58;4.20;;;2.63;;
11970;SDS011;6045;42.682;23.294;2023-04-06T11:43:27;4.43;;;2.97;;
11970;SDS011;6045;42.682;23.294;2023-04-06T11:46:00;5.20;;;3.67;;
11970;SDS011;6045;42.682;23.294;2023-04-06T11:48:28;3.50;;;3.07;;
11970;SDS011;6045;42.682;23.294;2023-04-06T11:50:56;4.00;;;2.63;;
11970;SDS011;6045;42.682;23.294;2023-04-06T11:53:24;4.27;;;2.60;;
11970;SDS011;6045;42.682;23.294;2023-04-06T11:55:51;5.40;;;2.90;;
11970;SDS011;6045;42.682;23.294;2023-04-06T11:58:18;5.47;;;3.43;;
11970;SDS011;6045;42.682;23.294;2023-04-06T12:00:45;4.30;;;2.90;;
11970;SDS011;6045;42.682;23.294;2023-04-06T12:03:13;4.53;;;2.83;;
11970;SDS011;6045;42.682;23.294;2023-04-06T12:05:40;5.47;;;3.17;;
11970;SDS011;6045;42.682;23.294;2023-04-06T12:08:07;4.77;;;3.40;;
11970;SDS011;6045;42.682;23.294;2023-04-06T12:10:34;3.77;;;3.30;;
11970;SDS011;6045;42.682;23.294;2023-04-06T12:13:00;5.30;;;2.80;;
11970;SDS011;6045;42.682;23.294;2023-04-06T12:15:27;3.63;;;3.10;;
11970;SDS011;6045;42.682;23.294;2023-04-06T12:17:54;4.10;;;2.97;;
11970;SDS011;6045;42.682;23.294;2023-04-06T12:20:22;4.03;;;2.40;;
11970;SDS011;6045;42.682;23.294;2023-04-06T12:22:49;3.17;;;2.70;;
11970;SDS011;6045;42.682;23.294;2023-04-06T12:25:16;4.40;;;3.27;;
11970;SDS011;6045;42.682;23.294;2023-04-06T12:27:43;4.27;;;2.83;;
11970;SDS011;6045;42.682;23.294;2023-04-06T12:30:10;3.00;;;2.60;;
11970;SDS011;6045;42.682;23.294;2023-04-06T12:32:37;2.77;;;2.57;;
11970;SDS011;6045;42.682;23.294;2023-04-06T12:35:04;4.30;;;3.27;;
11970;SDS011;6045;42.682;23.294;2023-04-06T12:37:35;5.37;;;3.17;;
11970;SDS011;6045;42.682;23.294;2023-04-06T12:40:02;3.37;;;2.83;;
11970;SDS011;6045;42.682;23.294;2023-04-06T12:42:29;4.03;;;2.97;;
11970;SDS011;6045;42.682;23.294;2023-04-06T12:44:56;5.87;;;3.00;;
11970;SDS011;6045;42.682;23.294;2023-04-06T12:47:24;4.53;;;3.43;;
11970;SDS011;6045;42.682;23.294;2023-04-06T12:49:51;3.23;;;2.90;;
11970;SDS011;6045;42.682;23.294;2023-04-06T12:52:19;4.53;;;3.37;;
11970;SDS011;6045;42.682;23.294;2023-04-06T12:54:48;2.47;;;2.23;;
11970;SDS011;6045;42.682;23.294;2023-04-06T12:57:15;3.47;;;3.17;;
11970;SDS011;6045;42.682;23.294;2023-04-06T12:59:42;4.37;;;3.63;;
11970;SDS011;6045;42.682;23.294;2023-04-06T13:02:09;2.63;;;2.23;;
11970;SDS011;6045;42.682;23.294;2023-04-06T13:04:36;3.27;;;2.80;;
11970;SDS011;6045;42.682;23.294;2023-04-06T13:07:03;4.83;;;2.87;;
11970;SDS011;6045;42.682;23.294;2023-04-06T13:09:30;2.67;;;2.27;;
11970;SDS011;6045;42.682;23.294;2023-04-06T13:11:58;2.73;;;2.53;;
11970;SDS011;6045;42.682;23.294;2023-04-06T13:14:26;3.30;;;2.47;;
11970;SDS011;6045;42.682;23.294;2023-04-06T13:16:52;6.40;;;4.00;;
11970;SDS011;6045;42.682;23.294;2023-04-06T13:19:19;4.50;;;3.63;;
11970;SDS011;6045;42.682;23.294;2023-04-06T13:21:46;3.80;;;2.93;;
11970;SDS011;6045;42.682;23.294;2023-04-06T13:24:13;4.07;;;3.33;;
11970;SDS011;6045;42.682;23.294;2023-04-06T13:26:40;4.77;;;3.97;;
11970;SDS011;6045;42.682;23.294;2023-04-06T13:29:08;6.30;;;3.77;;
11970;SDS011;6045;42.682;23.294;2023-04-06T13:31:35;2.80;;;2.50;;
11970;SDS011;6045;42.682;23.294;2023-04-06T13:34:03;4.93;;;3.03;;
11970;SDS011;6045;42.682;23.294;2023-04-06T13:36:29;5.87;;;3.27;;
11970;SDS011;6045;42.682;23.294;2023-04-06T13:38:57;2.73;;;2.43;;
11970;SDS011;6045;42.682;23.294;2023-04-06T13:41:24;4.57;;;2.70;;
11970;SDS011;6045;42.682;23.294;2023-04-06T13:43:51;4.67;;;2.43;;
11970;SDS011;6045;42.682;23.294;2023-04-06T13:46:20;5.07;;;2.73;;
11970;SDS011;6045;42.682;23.294;2023-04-06T13:48:48;4.37;;;3.03;;
11970;SDS011;6045;42.682;23.294;2023-04-06T13:51:16;7.23;;;3.83;;
11970;SDS011;6045;42.682;23.294;2023-04-06T13:53:42;5.13;;;3.13;;
11970;SDS011;6045;42.682;23.294;2023-04-06T13:56:09;3.90;;;3.23;;
11970;SDS011;6045;42.682;23.294;2023-04-06T13:58:36;3.17;;;2.87;;
11970;SDS011;6045;42.682;23.294;2023-04-06T14:01:03;4.43;;;2.77;;
11970;SDS011;6045;42.682;23.294;2023-04-06T14:03:32;4.57;;;3.50;;
11970;SDS011;6045;42.682;23.294;2023-04-06T14:05:59;4.27;;;2.57;;
11970;SDS011;6045;42.682;23.294;2023-04-06T14:08:26;7.33;;;4.67;;
11970;SDS011;6045;42.682;23.294;2023-04-06T14:10:53;3.63;;;3.00;;
11970;SDS011;6045;42.682;23.294;2023-04-06T14:13:20;3.67;;;2.40;;
11970;SDS011;6045;42.682;23.294;2023-04-06T14:15:52;3.60;;;2.80;;
11970;SDS011;6045;42.682;23.294;2023-04-06T14:18:19;3.57;;;2.70;;
11970;SDS011;6045;42.682;23.294;2023-04-06T14:20:54;5.60;;;3.67;;
11970;SDS011;6045;42.682;23.294;2023-04-06T14:23:21;3.30;;;2.83;;
11970;SDS011;6045;42.682;23.294;2023-04-06T14:25:48;3.73;;;2.57;;
11970;SDS011;6045;42.682;23.294;2023-04-06T14:28:15;3.67;;;2.87;;
11970;SDS011;6045;42.682;23.294;2023-04-06T14:30:42;2.90;;;2.60;;
11970;SDS011;6045;42.682;23.294;2023-04-06T14:33:09;4.43;;;3.43;;
11970;SDS011;6045;42.682;23.294;2023-04-06T14:35:37;3.00;;;2.77;;
11970;SDS011;6045;42.682;23.294;2023-04-06T14:38:06;5.23;;;3.47;;
11970;SDS011;6045;42.682;23.294;2023-04-06T14:40:34;4.07;;;3.37;;
11970;SDS011;6045;42.682;23.294;2023-04-06T14:43:02;2.93;;;2.43;;
11970;SDS011;6045;42.682;23.294;2023-04-06T14:45:29;3.50;;;3.13;;
11970;SDS011;6045;42.682;23.294;2023-04-06T14:47:55;5.03;;;3.50;;
11970;SDS011;6045;42.682;23.294;2023-04-06T14:50:22;13.50;;;7.53;;